sensor_id;sensor_type;location;lat;lon;timestamp;P1;durP1;ratioP1;P2;durP2;ratioP2
11618;SDS011;5865;48.776;9.280;2023-02-01T00:03:33;5.50;;;3.00;;
11618;SDS011;5865;48.776;9.280;2023-02-01T00:06:15;3.77;;;3.07;;
11618;SDS011;5865;48.776;9.280;2023-02-01T00:08:56;3.97;;;3.10;;
11618;SDS011;5865;48.776;9.280;2023-02-01T00:11:24;3.93;;;2.80;;
11618;SDS011;5865;48.776;9.280;2023-02-01T00:13:53;3.70;;;2.70;;
11618;SDS011;5865;48.776;9.280;2023-02-01T00:16:23;3.87;;;2.70;;
11618;SDS011;5865;48.776;9.280;2023-02-01T00:18:56;5.57;;;2.97;;
11618;SDS011;5865;48.776;9.280;2023-02-01T00:21:28;3.83;;;2.70;;
11618;SDS011;5865;48.776;9.280;2023-02-01T00:24:09;3.13;;;2.60;;
11618;SDS011;5865;48.776;9.280;2023-02-01T00:26:40;3.87;;;2.63;;
11618;SDS011;5865;48.776;9.280;2023-02-01T00:29:13;3.47;;;2.80;;
11618;SDS011;5865;48.776;9.280;2023-02-01T00:37:54;4.37;;;2.60;;
11618;SDS011;5865;48.776;9.280;2023-02-01T00:40:24;3.03;;;2.53;;
11618;SDS011;5865;48.776;9.280;2023-02-01T00:43:03;3.53;;;2.20;;
11618;SDS011;5865;48.776;9.280;2023-02-01T00:45:32;3.10;;;2.27;;
11618;SDS011;5865;48.776;9.280;2023-02-01T00:48:01;3.63;;;2.43;;
11618;SDS011;5865;48.776;9.280;2023-02-01T00:50:34;2.83;;;2.20;;
11618;SDS011;5865;48.776;9.280;2023-02-01T00:53:02;3.07;;;2.00;;
11618;SDS011;5865;48.776;9.280;2023-02-01T00:55:31;3.43;;;2.10;;
11618;SDS011;5865;48.776;9.280;2023-02-01T00:57:59;2.97;;;2.20;;
11618;SDS011;5865;48.776;9.280;2023-02-01T01:00:27;4.07;;;2.50;;
11618;SDS011;5865;48.776;9.280;2023-02-01T01:02:56;2.70;;;2.10;;
11618;SDS011;5865;48.776;9.280;2023-02-01T01:05:23;2.97;;;2.07;;
11618;SDS011;5865;48.776;9.280;2023-02-01T01:07:55;2.50;;;1.80;;
11618;SDS011;5865;48.776;9.280;2023-02-01T01:10:29;2.30;;;1.93;;
11618;SDS011;5865;48.776;9.280;2023-02-01T01:12:58;2.60;;;2.03;;
11618;SDS011;5865;48.776;9.280;2023-02-01T01:15:26;2.47;;;2.10;;
11618;SDS011;5865;48.776;9.280;2023-02-01T01:18:09;2.47;;;2.03;;
11618;SDS011;5865;48.776;9.280;2023-02-01T01:20:42;4.07;;;1.97;;
11618;SDS011;5865;48.776;9.280;2023-02-01T01:28:55;2.27;;;1.80;;
11618;SDS011;5865;48.776;9.280;2023-02-01T01:31:26;2.53;;;2.00;;
11618;SDS011;5865;48.776;9.280;2023-02-01T01:33:56;2.73;;;1.90;;
11618;SDS011;5865;48.776;9.280;2023-02-01T01:36:26;2.10;;;1.90;;
11618;SDS011;5865;48.776;9.280;2023-02-01T01:39:08;2.33;;;1.80;;
11618;SDS011;5865;48.776;9.280;2023-02-01T01:47:28;2.30;;;2.10;;
11618;SDS011;5865;48.776;9.280;2023-02-01T01:49:58;2.20;;;2.00;;
11618;SDS011;5865;48.776;9.280;2023-02-01T01:52:27;2.77;;;1.87;;
11618;SDS011;5865;48.776;9.280;2023-02-01T01:54:56;2.33;;;1.90;;
11618;SDS011;5865;48.776;9.280;2023-02-01T01:57:32;1.83;;;1.73;;
11618;SDS011;5865;48.776;9.280;2023-02-01T02:00:03;2.53;;;1.77;;
11618;SDS011;5865;48.776;9.280;2023-02-01T02:02:39;3.07;;;1.80;;
11618;SDS011;5865;48.776;9.280;2023-02-01T02:05:12;2.00;;;1.80;;
11618;SDS011;5865;48.776;9.280;2023-02-01T02:07:45;2.10;;;1.80;;
11618;SDS011;5865;48.776;9.280;2023-02-01T02:10:21;1.90;;;1.60;;
11618;SDS011;5865;48.776;9.280;2023-02-01T02:13:14;2.47;;;1.80;;
11618;SDS011;5865;48.776;9.280;2023-02-01T02:15:50;1.83;;;1.63;;
11618;SDS011;5865;48.776;9.280;2023-02-01T02:18:24;2.30;;;1.60;;
11618;SDS011;5865;48.776;9.280;2023-02-01T02:24:02;2.00;;;1.80;;
11618;SDS011;5865;48.776;9.280;2023-02-01T02:26:47;1.80;;;1.70;;
11618;SDS011;5865;48.776;9.280;2023-02-01T02:29:31;1.73;;;1.60;;
11618;SDS011;5865;48.776;9.280;2023-02-01T02:35:00;1.53;;;1.43;;
11618;SDS011;5865;48.776;9.280;2023-02-01T02:37:50;2.27;;;1.67;;
11618;SDS011;5865;48.776;9.280;2023-02-01T02:40:27;1.80;;;1.70;;
11618;SDS011;5865;48.776;9.280;2023-02-01T02:43:13;2.17;;;1.80;;
11618;SDS011;5865;48.776;9.280;2023-02-01T02:46:03;3.00;;;1.80;;
11618;SDS011;5865;48.776;9.280;2023-02-01T02:48:51;2.33;;;1.73;;
11618;SDS011;5865;48.776;9.280;2023-02-01T02:51:23;2.20;;;2.00;;
11618;SDS011;5865;48.776;9.280;2023-02-01T02:54:13;2.03;;;1.80;;
11618;SDS011;5865;48.776;9.280;2023-02-01T02:56:58;2.47;;;2.00;;
11618;SDS011;5865;48.776;9.280;2023-02-01T02:59:45;2.40;;;1.93;;
11618;SDS011;5865;48.776;9.280;2023-02-01T03:02:34;2.50;;;2.10;;
11618;SDS011;5865;48.776;9.280;2023-02-01T03:05:23;2.50;;;1.90;;
11618;SDS011;5865;48.776;9.280;2023-02-01T03:08:12;2.73;;;1.93;;
11618;SDS011;5865;48.776;9.280;2023-02-01T03:10:53;3.33;;;2.20;;
11618;SDS011;5865;48.776;9.280;2023-02-01T03:13:26;2.90;;;2.00;;
11618;SDS011;5865;48.776;9.280;2023-02-01T03:15:54;3.00;;;1.80;;
11618;SDS011;5865;48.776;9.280;2023-02-01T03:18:29;2.43;;;1.97;;
11618;SDS011;5865;48.776;9.280;2023-02-01T03:21:16;3.47;;;2.10;;
11618;SDS011;5865;48.776;9.280;2023-02-01T03:26:53;3.27;;;2.40;;
11618;SDS011;5865;48.776;9.280;2023-02-01T03:29:25;2.80;;;2.40;;
11618;SDS011;5865;48.776;9.280;2023-02-01T03:32:06;2.40;;;2.20;;
11618;SDS011;5865;48.776;9.280;2023-02-01T03:34:36;3.27;;;2.20;;
11618;SDS011;5865;48.776;9.280;2023-02-01T03:37:05;3.40;;;2.30;;
11618;SDS011;5865;48.776;9.280;2023-02-01T03:39:48;3.73;;;2.20;;
11618;SDS011;5865;48.776;9.280;2023-02-01T03:42:26;3.57;;;2.57;;
11618;SDS011;5865;48.776;9.280;2023-02-01T03:45:03;4.10;;;2.50;;
11618;SDS011;5865;48.776;9.280;2023-02-01T03:47:48;3.17;;;2.50;;
11618;SDS011;5865;48.776;9.280;2023-02-01T03:50:31;3.10;;;2.30;;
11618;SDS011;5865;48.776;9.280;2023-02-01T03:53:02;3.23;;;2.40;;
11618;SDS011;5865;48.776;9.280;2023-02-01T03:55:45;3.40;;;2.33;;
11618;SDS011;5865;48.776;9.280;2023-02-01T03:58:16;3.00;;;2.60;;
11618;SDS011;5865;48.776;9.280;2023-02-01T04:00:53;2.90;;;2.30;;
11618;SDS011;5865;48.776;9.280;2023-02-01T04:03:25;3.30;;;2.33;;
11618;SDS011;5865;48.776;9.280;2023-02-01T04:06:07;3.43;;;2.40;;
11618;SDS011;5865;48.776;9.280;2023-02-01T04:08:48;3.90;;;2.30;;
11618;SDS011;5865;48.776;9.280;2023-02-01T04:11:29;2.30;;;2.10;;
11618;SDS011;5865;48.776;9.280;2023-02-01T04:14:09;2.80;;;1.93;;
11618;SDS011;5865;48.776;9.280;2023-02-01T04:16:49;2.87;;;2.03;;
11618;SDS011;5865;48.776;9.280;2023-02-01T04:19:22;2.70;;;2.10;;
11618;SDS011;5865;48.776;9.280;2023-02-01T04:21:50;2.50;;;2.13;;
11618;SDS011;5865;48.776;9.280;2023-02-01T04:24:28;3.07;;;2.40;;
11618;SDS011;5865;48.776;9.280;2023-02-01T04:26:57;2.73;;;2.00;;
11618;SDS011;5865;48.776;9.280;2023-02-01T04:29:33;2.93;;;2.10;;
11618;SDS011;5865;48.776;9.280;2023-02-01T04:32:14;2.80;;;2.30;;
11618;SDS011;5865;48.776;9.280;2023-02-01T04:34:56;4.00;;;2.37;;
11618;SDS011;5865;48.776;9.280;2023-02-01T04:37:28;2.93;;;2.27;;
11618;SDS011;5865;48.776;9.280;2023-02-01T04:39:59;2.33;;;2.10;;
11618;SDS011;5865;48.776;9.280;2023-02-01T04:42:28;2.90;;;2.33;;
11618;SDS011;5865;48.776;9.280;2023-02-01T04:44:57;2.57;;;2.27;;
11618;SDS011;5865;48.776;9.280;2023-02-01T04:47:24;2.87;;;2.40;;
11618;SDS011;5865;48.776;9.280;2023-02-01T04:49:56;3.87;;;2.47;;
11618;SDS011;5865;48.776;9.280;2023-02-01T04:52:27;3.97;;;2.40;;
11618;SDS011;5865;48.776;9.280;2023-02-01T04:54:54;2.90;;;2.30;;
11618;SDS011;5865;48.776;9.280;2023-02-01T04:57:22;3.50;;;2.60;;
11618;SDS011;5865;48.776;9.280;2023-02-01T04:59:50;3.30;;;2.50;;
11618;SDS011;5865;48.776;9.280;2023-02-01T05:02:18;2.83;;;2.30;;
11618;SDS011;5865;48.776;9.280;2023-02-01T05:04:46;3.50;;;2.33;;
11618;SDS011;5865;48.776;9.280;2023-02-01T05:07:13;3.13;;;2.40;;
11618;SDS011;5865;48.776;9.280;2023-02-01T05:09:40;2.70;;;2.10;;
11618;SDS011;5865;48.776;9.280;2023-02-01T05:12:08;2.97;;;2.43;;
11618;SDS011;5865;48.776;9.280;2023-02-01T05:14:54;2.73;;;2.37;;
11618;SDS011;5865;48.776;9.280;2023-02-01T05:17:23;2.87;;;2.40;;
11618;SDS011;5865;48.776;9.280;2023-02-01T05:19:52;3.37;;;2.37;;
11618;SDS011;5865;48.776;9.280;2023-02-01T05:22:20;3.13;;;2.30;;
11618;SDS011;5865;48.776;9.280;2023-02-01T05:24:47;3.67;;;2.33;;
11618;SDS011;5865;48.776;9.280;2023-02-01T05:27:16;2.57;;;2.30;;
11618;SDS011;5865;48.776;9.280;2023-02-01T05:29:43;3.43;;;2.43;;
11618;SDS011;5865;48.776;9.280;2023-02-01T05:32:12;2.30;;;2.10;;
11618;SDS011;5865;48.776;9.280;2023-02-01T05:35:01;4.00;;;2.60;;
11618;SDS011;5865;48.776;9.280;2023-02-01T05:37:45;3.37;;;2.50;;
11618;SDS011;5865;48.776;9.280;2023-02-01T05:40:14;3.50;;;2.43;;
11618;SDS011;5865;48.776;9.280;2023-02-01T05:42:45;3.90;;;2.60;;
11618;SDS011;5865;48.776;9.280;2023-02-01T05:45:15;3.43;;;2.33;;
11618;SDS011;5865;48.776;9.280;2023-02-01T05:47:47;3.13;;;2.40;;
11618;SDS011;5865;48.776;9.280;2023-02-01T05:53:10;2.63;;;2.07;;
11618;SDS011;5865;48.776;9.280;2023-02-01T05:55:51;3.83;;;2.23;;
11618;SDS011;5865;48.776;9.280;2023-02-01T05:58:25;3.93;;;2.40;;
11618;SDS011;5865;48.776;9.280;2023-02-01T06:00:55;4.53;;;2.40;;
11618;SDS011;5865;48.776;9.280;2023-02-01T06:03:37;3.60;;;2.40;;
11618;SDS011;5865;48.776;9.280;2023-02-01T06:06:07;2.60;;;2.03;;
11618;SDS011;5865;48.776;9.280;2023-02-01T06:08:38;3.07;;;2.30;;
11618;SDS011;5865;48.776;9.280;2023-02-01T06:11:19;2.97;;;2.20;;
11618;SDS011;5865;48.776;9.280;2023-02-01T06:14:01;3.00;;;2.30;;
11618;SDS011;5865;48.776;9.280;2023-02-01T06:16:35;3.23;;;2.30;;
11618;SDS011;5865;48.776;9.280;2023-02-01T06:21:34;2.40;;;2.20;;
11618;SDS011;5865;48.776;9.280;2023-02-01T06:26:59;4.30;;;2.00;;
11618;SDS011;5865;48.776;9.280;2023-02-01T06:29:27;3.07;;;2.20;;
11618;SDS011;5865;48.776;9.280;2023-02-01T06:31:55;3.10;;;2.30;;
11618;SDS011;5865;48.776;9.280;2023-02-01T06:34:22;2.83;;;2.20;;
11618;SDS011;5865;48.776;9.280;2023-02-01T06:37:03;2.80;;;2.30;;
11618;SDS011;5865;48.776;9.280;2023-02-01T06:42:52;1.83;;;1.70;;
11618;SDS011;5865;48.776;9.280;2023-02-01T06:45:22;2.83;;;2.17;;
11618;SDS011;5865;48.776;9.280;2023-02-01T06:47:49;3.17;;;2.10;;
11618;SDS011;5865;48.776;9.280;2023-02-01T06:50:30;3.90;;;2.90;;
11618;SDS011;5865;48.776;9.280;2023-02-01T06:52:59;2.40;;;2.10;;
11618;SDS011;5865;48.776;9.280;2023-02-01T06:55:42;3.57;;;2.40;;
11618;SDS011;5865;48.776;9.280;2023-02-01T07:01:33;2.87;;;2.00;;
11618;SDS011;5865;48.776;9.280;2023-02-01T07:04:02;3.53;;;1.83;;
11618;SDS011;5865;48.776;9.280;2023-02-01T07:06:34;3.53;;;2.23;;
11618;SDS011;5865;48.776;9.280;2023-02-01T07:09:02;3.00;;;2.07;;
11618;SDS011;5865;48.776;9.280;2023-02-01T07:11:43;4.10;;;2.20;;
11618;SDS011;5865;48.776;9.280;2023-02-01T07:14:15;3.60;;;2.20;;
11618;SDS011;5865;48.776;9.280;2023-02-01T07:16:44;2.67;;;2.20;;
11618;SDS011;5865;48.776;9.280;2023-02-01T07:22:52;3.27;;;2.10;;
11618;SDS011;5865;48.776;9.280;2023-02-01T07:26:33;2.40;;;1.97;;
11618;SDS011;5865;48.776;9.280;2023-02-01T07:29:53;2.67;;;2.00;;
11618;SDS011;5865;48.776;9.280;2023-02-01T10:38:25;7.97;;;2.40;;
11618;SDS011;5865;48.776;9.280;2023-02-01T10:41:52;9.07;;;2.13;;
11618;SDS011;5865;48.776;9.280;2023-02-01T10:48:35;5.93;;;2.00;;
11618;SDS011;5865;48.776;9.280;2023-02-01T12:29:18;8.93;;;2.17;;
11618;SDS011;5865;48.776;9.280;2023-02-01T12:32:04;8.50;;;3.10;;
11618;SDS011;5865;48.776;9.280;2023-02-01T12:34:40;8.40;;;3.77;;
11618;SDS011;5865;48.776;9.280;2023-02-01T12:37:13;4.97;;;1.63;;
11618;SDS011;5865;48.776;9.280;2023-02-01T12:39:45;6.07;;;1.83;;
11618;SDS011;5865;48.776;9.280;2023-02-01T12:42:18;7.97;;;1.77;;
11618;SDS011;5865;48.776;9.280;2023-02-01T12:44:51;4.80;;;1.73;;
11618;SDS011;5865;48.776;9.280;2023-02-01T12:47:35;7.30;;;2.00;;
11618;SDS011;5865;48.776;9.280;2023-02-01T12:50:19;5.17;;;1.83;;
11618;SDS011;5865;48.776;9.280;2023-02-01T12:52:48;5.90;;;1.63;;
11618;SDS011;5865;48.776;9.280;2023-02-01T12:55:17;4.87;;;1.87;;
11618;SDS011;5865;48.776;9.280;2023-02-01T12:57:49;7.93;;;2.30;;
11618;SDS011;5865;48.776;9.280;2023-02-01T13:00:22;6.33;;;1.93;;
11618;SDS011;5865;48.776;9.280;2023-02-01T13:02:52;9.53;;;2.40;;
11618;SDS011;5865;48.776;9.280;2023-02-01T13:05:22;12.87;;;2.60;;
11618;SDS011;5865;48.776;9.280;2023-02-01T13:07:52;8.33;;;1.80;;
11618;SDS011;5865;48.776;9.280;2023-02-01T13:10:23;8.67;;;2.10;;
11618;SDS011;5865;48.776;9.280;2023-02-01T13:12:59;4.50;;;1.90;;
11618;SDS011;5865;48.776;9.280;2023-02-01T13:15:31;5.77;;;1.80;;
11618;SDS011;5865;48.776;9.280;2023-02-01T13:18:05;7.27;;;1.97;;
11618;SDS011;5865;48.776;9.280;2023-02-01T13:20:35;7.30;;;1.87;;
11618;SDS011;5865;48.776;9.280;2023-02-01T13:23:09;6.03;;;1.87;;
11618;SDS011;5865;48.776;9.280;2023-02-01T13:25:43;7.40;;;2.07;;
11618;SDS011;5865;48.776;9.280;2023-02-01T13:28:24;4.40;;;1.87;;
11618;SDS011;5865;48.776;9.280;2023-02-01T13:31:03;7.80;;;1.93;;
11618;SDS011;5865;48.776;9.280;2023-02-01T13:33:51;7.43;;;2.20;;
11618;SDS011;5865;48.776;9.280;2023-02-01T13:36:42;8.80;;;4.80;;
11618;SDS011;5865;48.776;9.280;2023-02-01T13:42:30;8.67;;;2.10;;
11618;SDS011;5865;48.776;9.280;2023-02-01T13:45:13;4.93;;;1.60;;
11618;SDS011;5865;48.776;9.280;2023-02-01T13:50:32;8.97;;;3.60;;
11618;SDS011;5865;48.776;9.280;2023-02-01T13:53:03;5.90;;;2.27;;
11618;SDS011;5865;48.776;9.280;2023-02-01T13:55:41;8.70;;;2.50;;
11618;SDS011;5865;48.776;9.280;2023-02-01T13:58:13;6.43;;;1.60;;
11618;SDS011;5865;48.776;9.280;2023-02-01T14:03:44;5.43;;;2.00;;
11618;SDS011;5865;48.776;9.280;2023-02-01T14:20:57;5.07;;;1.90;;
11618;SDS011;5865;48.776;9.280;2023-02-01T14:23:55;7.33;;;1.77;;
11618;SDS011;5865;48.776;9.280;2023-02-01T14:26:55;6.40;;;2.00;;
11618;SDS011;5865;48.776;9.280;2023-02-01T14:29:26;7.13;;;1.87;;
11618;SDS011;5865;48.776;9.280;2023-02-01T14:31:58;7.03;;;1.90;;
11618;SDS011;5865;48.776;9.280;2023-02-01T14:34:53;4.27;;;1.80;;
11618;SDS011;5865;48.776;9.280;2023-02-01T14:37:25;5.53;;;2.07;;
11618;SDS011;5865;48.776;9.280;2023-02-01T14:39:58;6.27;;;1.80;;
11618;SDS011;5865;48.776;9.280;2023-02-01T14:42:28;8.87;;;1.90;;
11618;SDS011;5865;48.776;9.280;2023-02-01T14:51:20;8.60;;;2.20;;
11618;SDS011;5865;48.776;9.280;2023-02-01T14:53:47;10.33;;;2.13;;
11618;SDS011;5865;48.776;9.280;2023-02-01T14:56:16;8.77;;;2.07;;
11618;SDS011;5865;48.776;9.280;2023-02-01T14:58:48;8.37;;;2.00;;
11618;SDS011;5865;48.776;9.280;2023-02-01T15:01:20;5.23;;;1.70;;
11618;SDS011;5865;48.776;9.280;2023-02-01T15:03:56;8.00;;;2.10;;
11618;SDS011;5865;48.776;9.280;2023-02-01T15:06:31;7.30;;;1.80;;
11618;SDS011;5865;48.776;9.280;2023-02-01T15:09:03;9.40;;;2.77;;
11618;SDS011;5865;48.776;9.280;2023-02-01T15:14:23;5.87;;;1.60;;
11618;SDS011;5865;48.776;9.280;2023-02-01T15:16:51;6.07;;;2.10;;
11618;SDS011;5865;48.776;9.280;2023-02-01T15:19:20;5.57;;;2.43;;
11618;SDS011;5865;48.776;9.280;2023-02-01T15:21:50;7.73;;;1.93;;
11618;SDS011;5865;48.776;9.280;2023-02-01T15:24:19;4.87;;;1.80;;
11618;SDS011;5865;48.776;9.280;2023-02-01T15:26:48;5.60;;;2.20;;
11618;SDS011;5865;48.776;9.280;2023-02-01T15:29:16;8.33;;;1.90;;
11618;SDS011;5865;48.776;9.280;2023-02-01T15:31:44;10.33;;;5.00;;
11618;SDS011;5865;48.776;9.280;2023-02-01T15:34:12;6.40;;;2.47;;
11618;SDS011;5865;48.776;9.280;2023-02-01T15:36:40;5.73;;;1.70;;
11618;SDS011;5865;48.776;9.280;2023-02-01T15:39:13;5.83;;;2.03;;
11618;SDS011;5865;48.776;9.280;2023-02-01T15:41:46;10.73;;;2.70;;
11618;SDS011;5865;48.776;9.280;2023-02-01T15:44:17;7.80;;;2.23;;
11618;SDS011;5865;48.776;9.280;2023-02-01T15:46:48;9.07;;;3.37;;
11618;SDS011;5865;48.776;9.280;2023-02-01T15:49:18;7.73;;;3.03;;
11618;SDS011;5865;48.776;9.280;2023-02-01T15:51:48;10.83;;;4.27;;
11618;SDS011;5865;48.776;9.280;2023-02-01T15:54:18;8.70;;;4.60;;
11618;SDS011;5865;48.776;9.280;2023-02-01T15:56:49;6.20;;;2.40;;
11618;SDS011;5865;48.776;9.280;2023-02-01T15:59:20;7.77;;;2.20;;
11618;SDS011;5865;48.776;9.280;2023-02-01T16:01:49;5.20;;;1.70;;
11618;SDS011;5865;48.776;9.280;2023-02-01T16:04:18;6.17;;;2.10;;
11618;SDS011;5865;48.776;9.280;2023-02-01T16:06:47;9.97;;;3.10;;
11618;SDS011;5865;48.776;9.280;2023-02-01T16:09:18;8.60;;;2.67;;
11618;SDS011;5865;48.776;9.280;2023-02-01T16:11:48;7.23;;;2.80;;
11618;SDS011;5865;48.776;9.280;2023-02-01T16:14:19;11.13;;;4.63;;
11618;SDS011;5865;48.776;9.280;2023-02-01T16:16:47;10.37;;;4.70;;
11618;SDS011;5865;48.776;9.280;2023-02-01T16:19:14;10.07;;;2.23;;
11618;SDS011;5865;48.776;9.280;2023-02-01T16:21:41;8.93;;;2.40;;
11618;SDS011;5865;48.776;9.280;2023-02-01T16:24:09;5.60;;;1.87;;
11618;SDS011;5865;48.776;9.280;2023-02-01T16:26:37;6.20;;;1.80;;
11618;SDS011;5865;48.776;9.280;2023-02-01T16:29:04;5.77;;;1.97;;
11618;SDS011;5865;48.776;9.280;2023-02-01T16:31:33;7.13;;;1.70;;
11618;SDS011;5865;48.776;9.280;2023-02-01T16:34:02;7.07;;;2.03;;
11618;SDS011;5865;48.776;9.280;2023-02-01T16:36:30;8.20;;;2.00;;
11618;SDS011;5865;48.776;9.280;2023-02-01T16:38:57;5.70;;;2.13;;
11618;SDS011;5865;48.776;9.280;2023-02-01T16:41:24;6.23;;;2.17;;
11618;SDS011;5865;48.776;9.280;2023-02-01T16:43:54;7.23;;;1.93;;
11618;SDS011;5865;48.776;9.280;2023-02-01T16:46:22;4.20;;;2.00;;
11618;SDS011;5865;48.776;9.280;2023-02-01T16:48:51;6.93;;;2.03;;
11618;SDS011;5865;48.776;9.280;2023-02-01T16:51:20;5.90;;;1.90;;
11618;SDS011;5865;48.776;9.280;2023-02-01T16:53:49;5.27;;;1.80;;
11618;SDS011;5865;48.776;9.280;2023-02-01T16:56:17;7.83;;;2.07;;
11618;SDS011;5865;48.776;9.280;2023-02-01T16:58:45;8.63;;;2.00;;
11618;SDS011;5865;48.776;9.280;2023-02-01T17:01:15;7.27;;;2.33;;
11618;SDS011;5865;48.776;9.280;2023-02-01T17:03:43;11.50;;;2.10;;
11618;SDS011;5865;48.776;9.280;2023-02-01T17:06:12;4.73;;;1.67;;
11618;SDS011;5865;48.776;9.280;2023-02-01T17:08:42;6.97;;;2.00;;
11618;SDS011;5865;48.776;9.280;2023-02-01T17:11:11;6.97;;;2.70;;
11618;SDS011;5865;48.776;9.280;2023-02-01T17:13:39;8.37;;;2.60;;
11618;SDS011;5865;48.776;9.280;2023-02-01T17:16:10;14.87;;;4.80;;
11618;SDS011;5865;48.776;9.280;2023-02-01T17:18:52;6.50;;;2.60;;
11618;SDS011;5865;48.776;9.280;2023-02-01T17:21:21;7.47;;;2.80;;
11618;SDS011;5865;48.776;9.280;2023-02-01T17:23:49;7.07;;;2.00;;
11618;SDS011;5865;48.776;9.280;2023-02-01T17:26:17;5.80;;;1.83;;
11618;SDS011;5865;48.776;9.280;2023-02-01T17:28:44;5.97;;;2.00;;
11618;SDS011;5865;48.776;9.280;2023-02-01T17:31:12;5.50;;;3.17;;
11618;SDS011;5865;48.776;9.280;2023-02-01T17:33:42;9.30;;;2.33;;
11618;SDS011;5865;48.776;9.280;2023-02-01T17:36:10;7.47;;;2.07;;
11618;SDS011;5865;48.776;9.280;2023-02-01T17:38:39;7.30;;;2.03;;
11618;SDS011;5865;48.776;9.280;2023-02-01T17:41:08;7.53;;;2.43;;
11618;SDS011;5865;48.776;9.280;2023-02-01T17:43:36;7.10;;;2.00;;
11618;SDS011;5865;48.776;9.280;2023-02-01T17:46:04;8.37;;;2.50;;
11618;SDS011;5865;48.776;9.280;2023-02-01T17:48:36;8.40;;;2.40;;
11618;SDS011;5865;48.776;9.280;2023-02-01T17:51:05;10.33;;;3.80;;
11618;SDS011;5865;48.776;9.280;2023-02-01T17:53:39;7.33;;;2.67;;
11618;SDS011;5865;48.776;9.280;2023-02-01T17:56:07;8.77;;;2.83;;
11618;SDS011;5865;48.776;9.280;2023-02-01T17:58:38;12.63;;;2.67;;
11618;SDS011;5865;48.776;9.280;2023-02-01T18:01:05;7.30;;;2.13;;
11618;SDS011;5865;48.776;9.280;2023-02-01T18:03:35;8.87;;;2.20;;
11618;SDS011;5865;48.776;9.280;2023-02-01T18:06:02;8.47;;;2.10;;
11618;SDS011;5865;48.776;9.280;2023-02-01T18:08:32;6.43;;;2.50;;
11618;SDS011;5865;48.776;9.280;2023-02-01T18:11:00;10.10;;;2.33;;
11618;SDS011;5865;48.776;9.280;2023-02-01T18:13:28;7.67;;;2.30;;
11618;SDS011;5865;48.776;9.280;2023-02-01T18:15:56;9.53;;;2.77;;
11618;SDS011;5865;48.776;9.280;2023-02-01T18:18:24;6.40;;;2.17;;
11618;SDS011;5865;48.776;9.280;2023-02-01T18:20:53;5.87;;;2.50;;
11618;SDS011;5865;48.776;9.280;2023-02-01T18:23:21;5.67;;;2.10;;
11618;SDS011;5865;48.776;9.280;2023-02-01T18:25:49;7.13;;;2.50;;
11618;SDS011;5865;48.776;9.280;2023-02-01T18:28:18;6.20;;;2.07;;
11618;SDS011;5865;48.776;9.280;2023-02-01T18:30:46;9.10;;;2.20;;
11618;SDS011;5865;48.776;9.280;2023-02-01T18:33:15;6.07;;;1.87;;
11618;SDS011;5865;48.776;9.280;2023-02-01T18:35:43;6.70;;;2.37;;
11618;SDS011;5865;48.776;9.280;2023-02-01T18:38:10;8.57;;;2.40;;
11618;SDS011;5865;48.776;9.280;2023-02-01T18:40:40;6.83;;;1.73;;
11618;SDS011;5865;48.776;9.280;2023-02-01T18:43:13;6.57;;;1.80;;
11618;SDS011;5865;48.776;9.280;2023-02-01T18:45:41;7.17;;;2.20;;
11618;SDS011;5865;48.776;9.280;2023-02-01T18:48:10;4.67;;;1.77;;
11618;SDS011;5865;48.776;9.280;2023-02-01T18:50:39;5.23;;;1.90;;
11618;SDS011;5865;48.776;9.280;2023-02-01T18:53:09;7.00;;;2.03;;
11618;SDS011;5865;48.776;9.280;2023-02-01T18:55:40;7.17;;;1.90;;
11618;SDS011;5865;48.776;9.280;2023-02-01T18:58:07;5.67;;;2.27;;
11618;SDS011;5865;48.776;9.280;2023-02-01T19:00:38;7.20;;;2.00;;
11618;SDS011;5865;48.776;9.280;2023-02-01T19:03:05;7.77;;;2.30;;
11618;SDS011;5865;48.776;9.280;2023-02-01T19:05:32;10.43;;;3.57;;
11618;SDS011;5865;48.776;9.280;2023-02-01T19:07:59;8.97;;;2.90;;
11618;SDS011;5865;48.776;9.280;2023-02-01T19:10:26;8.67;;;2.67;;
11618;SDS011;5865;48.776;9.280;2023-02-01T19:12:55;8.90;;;3.17;;
11618;SDS011;5865;48.776;9.280;2023-02-01T19:15:22;10.33;;;3.60;;
11618;SDS011;5865;48.776;9.280;2023-02-01T19:17:50;13.10;;;4.23;;
11618;SDS011;5865;48.776;9.280;2023-02-01T19:20:20;7.97;;;2.43;;
11618;SDS011;5865;48.776;9.280;2023-02-01T19:22:50;6.70;;;2.20;;
11618;SDS011;5865;48.776;9.280;2023-02-01T19:25:19;13.43;;;4.53;;
11618;SDS011;5865;48.776;9.280;2023-02-01T19:27:47;31.20;;;22.33;;
11618;SDS011;5865;48.776;9.280;2023-02-01T19:30:16;10.47;;;3.67;;
11618;SDS011;5865;48.776;9.280;2023-02-01T19:32:44;14.80;;;4.57;;
11618;SDS011;5865;48.776;9.280;2023-02-01T19:35:12;6.47;;;2.50;;
11618;SDS011;5865;48.776;9.280;2023-02-01T19:37:41;6.47;;;2.40;;
11618;SDS011;5865;48.776;9.280;2023-02-01T19:40:09;6.57;;;2.50;;
11618;SDS011;5865;48.776;9.280;2023-02-01T19:42:37;12.90;;;5.30;;
11618;SDS011;5865;48.776;9.280;2023-02-01T19:45:04;6.30;;;2.00;;
11618;SDS011;5865;48.776;9.280;2023-02-01T19:47:33;8.10;;;2.30;;
11618;SDS011;5865;48.776;9.280;2023-02-01T19:50:00;7.37;;;2.10;;
11618;SDS011;5865;48.776;9.280;2023-02-01T19:52:31;8.53;;;2.43;;
11618;SDS011;5865;48.776;9.280;2023-02-01T19:54:58;5.17;;;1.77;;
11618;SDS011;5865;48.776;9.280;2023-02-01T19:57:25;5.63;;;2.23;;
11618;SDS011;5865;48.776;9.280;2023-02-01T19:59:52;5.23;;;1.73;;
11618;SDS011;5865;48.776;9.280;2023-02-01T20:02:19;5.37;;;1.63;;
11618;SDS011;5865;48.776;9.280;2023-02-01T20:04:48;6.43;;;2.17;;
11618;SDS011;5865;48.776;9.280;2023-02-01T20:07:15;5.73;;;1.63;;
11618;SDS011;5865;48.776;9.280;2023-02-01T20:09:42;4.13;;;1.57;;
11618;SDS011;5865;48.776;9.280;2023-02-01T20:12:09;7.70;;;1.83;;
11618;SDS011;5865;48.776;9.280;2023-02-01T20:14:37;6.83;;;1.90;;
11618;SDS011;5865;48.776;9.280;2023-02-01T20:17:05;6.50;;;1.67;;
11618;SDS011;5865;48.776;9.280;2023-02-01T20:19:33;7.13;;;2.00;;
11618;SDS011;5865;48.776;9.280;2023-02-01T20:22:02;9.00;;;2.03;;
11618;SDS011;5865;48.776;9.280;2023-02-01T20:24:29;7.80;;;1.87;;
11618;SDS011;5865;48.776;9.280;2023-02-01T20:26:56;8.60;;;1.90;;
11618;SDS011;5865;48.776;9.280;2023-02-01T20:29:23;10.67;;;2.13;;
11618;SDS011;5865;48.776;9.280;2023-02-01T20:31:50;8.00;;;2.10;;
11618;SDS011;5865;48.776;9.280;2023-02-01T20:34:17;6.70;;;2.80;;
11618;SDS011;5865;48.776;9.280;2023-02-01T20:36:45;5.47;;;1.63;;
11618;SDS011;5865;48.776;9.280;2023-02-01T20:39:14;8.53;;;2.93;;
11618;SDS011;5865;48.776;9.280;2023-02-01T20:41:41;10.60;;;2.20;;
11618;SDS011;5865;48.776;9.280;2023-02-01T20:44:08;9.80;;;1.60;;
11618;SDS011;5865;48.776;9.280;2023-02-01T20:46:36;10.33;;;2.03;;
11618;SDS011;5865;48.776;9.280;2023-02-01T20:49:04;9.20;;;1.90;;
11618;SDS011;5865;48.776;9.280;2023-02-01T20:51:31;9.17;;;2.30;;
11618;SDS011;5865;48.776;9.280;2023-02-01T20:53:59;7.47;;;2.10;;
11618;SDS011;5865;48.776;9.280;2023-02-01T20:56:27;5.07;;;1.70;;
11618;SDS011;5865;48.776;9.280;2023-02-01T20:58:54;5.20;;;2.10;;
11618;SDS011;5865;48.776;9.280;2023-02-01T21:01:27;6.40;;;2.20;;
11618;SDS011;5865;48.776;9.280;2023-02-01T21:03:56;7.00;;;2.37;;
11618;SDS011;5865;48.776;9.280;2023-02-01T21:06:23;8.83;;;2.97;;
11618;SDS011;5865;48.776;9.280;2023-02-01T21:08:50;6.67;;;2.47;;
11618;SDS011;5865;48.776;9.280;2023-02-01T21:11:17;5.90;;;2.00;;
11618;SDS011;5865;48.776;9.280;2023-02-01T21:13:45;6.70;;;2.03;;
11618;SDS011;5865;48.776;9.280;2023-02-01T21:16:16;6.10;;;2.03;;
11618;SDS011;5865;48.776;9.280;2023-02-01T21:18:48;7.90;;;2.47;;
11618;SDS011;5865;48.776;9.280;2023-02-01T21:21:15;8.60;;;2.30;;
11618;SDS011;5865;48.776;9.280;2023-02-01T21:23:43;9.73;;;1.70;;
11618;SDS011;5865;48.776;9.280;2023-02-01T21:26:10;8.77;;;2.30;;
11618;SDS011;5865;48.776;9.280;2023-02-01T21:28:38;4.30;;;1.70;;
11618;SDS011;5865;48.776;9.280;2023-02-01T21:31:06;8.30;;;2.40;;
11618;SDS011;5865;48.776;9.280;2023-02-01T21:33:33;6.10;;;1.80;;
11618;SDS011;5865;48.776;9.280;2023-02-01T21:36:02;8.17;;;2.20;;
11618;SDS011;5865;48.776;9.280;2023-02-01T21:38:31;8.70;;;2.53;;
11618;SDS011;5865;48.776;9.280;2023-02-01T21:40:58;8.00;;;2.10;;